sensor_id;sensor_type;location;lat;lon;timestamp;pressure;altitude;pressure_sealevel;temperature;humidity
6216;BME280;3141;49.234;9.326;2022-08-11T00:00:20;100097.16;;;20.33;44.92
6216;BME280;3141;49.234;9.326;2022-08-11T00:01:16;100108.50;;;20.42;44.68
6216;BME280;3141;49.234;9.326;2022-08-11T00:01:59;100106.03;;;20.40;44.70
6216;BME280;3141;49.234;9.326;2022-08-11T00:02:47;100106.44;;;20.37;44.86
6216;BME280;3141;49.234;9.326;2022-08-11T00:03:32;100108.53;;;20.29;45.31
6216;BME280;3141;49.234;9.326;2022-08-11T00:04:15;100107.50;;;20.17;45.95
6216;BME280;3141;49.234;9.326;2022-08-11T00:05:10;100105.63;;;20.24;45.78
6216;BME280;3141;49.234;9.326;2022-08-11T00:05:54;100104.19;;;20.21;45.20
6216;BME280;3141;49.234;9.326;2022-08-11T00:06:38;100099.66;;;20.22;44.95
6216;BME280;3141;49.234;9.326;2022-08-11T00:07:21;100094.88;;;20.17;45.06
6216;BME280;3141;49.234;9.326;2022-08-11T00:08:05;100097.94;;;20.14;45.06
6216;BME280;3141;49.234;9.326;2022-08-11T00:08:49;100100.47;;;20.22;44.80
6216;BME280;3141;49.234;9.326;2022-08-11T00:09:35;100098.63;;;20.29;44.54
6216;BME280;3141;49.234;9.326;2022-08-11T00:10:21;100101.50;;;20.21;44.85
6216;BME280;3141;49.234;9.326;2022-08-11T00:11:06;100097.78;;;20.22;44.71
6216;BME280;3141;49.234;9.326;2022-08-11T00:11:53;100100.28;;;20.24;44.77
6216;BME280;3141;49.234;9.326;2022-08-11T00:12:36;100105.63;;;20.17;44.91
6216;BME280;3141;49.234;9.326;2022-08-11T00:13:19;100103.97;;;20.23;44.82
6216;BME280;3141;49.234;9.326;2022-08-11T00:14:04;100099.66;;;20.22;44.97
6216;BME280;3141;49.234;9.326;2022-08-11T00:14:56;100103.56;;;20.19;44.94
6216;BME280;3141;49.234;9.326;2022-08-11T00:15:42;100103.97;;;20.23;44.98
6216;BME280;3141;49.234;9.326;2022-08-11T00:16:25;100112.22;;;20.21;45.38
6216;BME280;3141;49.234;9.326;2022-08-11T00:17:10;100098.81;;;20.21;45.40
6216;BME280;3141;49.234;9.326;2022-08-11T00:17:58;100099.41;;;20.10;45.72
6216;BME280;3141;49.234;9.326;2022-08-11T00:18:42;100100.66;;;20.08;45.94
6216;BME280;3141;49.234;9.326;2022-08-11T00:19:28;100107.25;;;20.05;45.92
6216;BME280;3141;49.234;9.326;2022-08-11T00:20:12;100101.88;;;20.05;45.86
6216;BME280;3141;49.234;9.326;2022-08-11T00:20:57;100104.16;;;20.02;45.94
6216;BME280;3141;49.234;9.326;2022-08-11T00:21:42;100104.75;;;19.97;45.82
6216;BME280;3141;49.234;9.326;2022-08-11T00:22:25;100099.59;;;19.89;46.13
6216;BME280;3141;49.234;9.326;2022-08-11T00:23:15;100102.09;;;19.97;46.06
6216;BME280;3141;49.234;9.326;2022-08-11T00:23:59;100105.19;;;19.94;46.01
6216;BME280;3141;49.234;9.326;2022-08-11T00:24:42;100103.09;;;19.83;45.86
6216;BME280;3141;49.234;9.326;2022-08-11T00:25:25;100101.25;;;19.84;46.09
6216;BME280;3141;49.234;9.326;2022-08-11T00:26:08;100108.66;;;19.88;45.94
6216;BME280;3141;49.234;9.326;2022-08-11T00:26:53;100101.25;;;19.77;45.95
6216;BME280;3141;49.234;9.326;2022-08-11T00:27:38;100105.56;;;19.78;45.70
6216;BME280;3141;49.234;9.326;2022-08-11T00:28:30;100103.09;;;19.77;45.83
6216;BME280;3141;49.234;9.326;2022-08-11T00:29:12;100106.19;;;19.80;45.62
6216;BME280;3141;49.234;9.326;2022-08-11T00:29:56;100102.06;;;19.71;45.77
6216;BME280;3141;49.234;9.326;2022-08-11T00:30:39;100101.84;;;19.73;45.85
6216;BME280;3141;49.234;9.326;2022-08-11T00:31:30;100103.09;;;19.70;45.85
6216;BME280;3141;49.234;9.326;2022-08-11T00:32:13;100104.72;;;19.71;45.34
6216;BME280;3141;49.234;9.326;2022-08-11T00:32:58;100104.31;;;19.68;45.16
6216;BME280;3141;49.234;9.326;2022-08-11T00:33:42;100104.31;;;19.68;45.04
6216;BME280;3141;49.234;9.326;2022-08-11T00:34:27;100104.72;;;19.71;44.81
6216;BME280;3141;49.234;9.326;2022-08-11T00:35:13;100110.53;;;19.75;44.89
6216;BME280;3141;49.234;9.326;2022-08-11T00:35:56;100113.41;;;19.73;44.77
6216;BME280;3141;49.234;9.326;2022-08-11T00:36:59;100108.88;;;19.67;44.91
6216;BME280;3141;49.234;9.326;2022-08-11T00:37:50;100110.72;;;19.73;44.77
6216;BME280;3141;49.234;9.326;2022-08-11T00:38:37;100109.88;;;19.66;45.29
6216;BME280;3141;49.234;9.326;2022-08-11T00:39:22;100106.78;;;19.69;45.14
6216;BME280;3141;49.234;9.326;2022-08-11T00:40:13;100110.50;;;19.55;45.34
6216;BME280;3141;49.234;9.326;2022-08-11T00:41:30;100106.78;;;19.56;45.23
6216;BME280;3141;49.234;9.326;2022-08-11T00:42:44;100107.63;;;19.57;45.18
6216;BME280;3141;49.234;9.326;2022-08-11T00:45:06;100112.13;;;19.56;44.99
6216;BME280;3141;49.234;9.326;2022-08-11T00:46:11;100107.19;;;19.53;45.31
6216;BME280;3141;49.234;9.326;2022-08-11T00:50:17;100123.22;;;19.40;46.17
6216;BME280;3141;49.234;9.326;2022-08-11T00:51:34;100116.00;;;19.34;46.45
6216;BME280;3141;49.234;9.326;2022-08-11T00:54:42;100121.13;;;19.29;46.36
6216;BME280;3141;49.234;9.326;2022-08-11T00:56:10;100115.69;;;19.22;46.40
6216;BME280;3141;49.234;9.326;2022-08-11T00:57:35;100118.00;;;19.19;47.05
6216;BME280;3141;49.234;9.326;2022-08-11T01:00:25;100119.59;;;19.13;46.82
6216;BME280;3141;49.234;9.326;2022-08-11T01:02:11;100120.84;;;19.17;46.55
6216;BME280;3141;49.234;9.326;2022-08-11T01:04:06;100114.91;;;19.22;46.75
6216;BME280;3141;49.234;9.326;2022-08-11T01:10:57;100121.97;;;18.95;47.24
6216;BME280;3141;49.234;9.326;2022-08-11T01:12:23;100126.78;;;19.06;46.26
6216;BME280;3141;49.234;9.326;2022-08-11T01:15:33;100114.81;;;19.02;46.92
6216;BME280;3141;49.234;9.326;2022-08-11T01:28:25;100110.06;;;18.98;48.25
6216;BME280;3141;49.234;9.326;2022-08-11T01:36:05;100107.72;;;18.88;48.60
6216;BME280;3141;49.234;9.326;2022-08-11T01:39:50;100109.34;;;18.83;49.20
6216;BME280;3141;49.234;9.326;2022-08-11T01:42:35;100108.59;;;18.95;48.79
6216;BME280;3141;49.234;9.326;2022-08-11T01:45:46;100111.47;;;18.94;49.19
6216;BME280;3141;49.234;9.326;2022-08-11T01:46:34;100111.44;;;18.87;49.43
6216;BME280;3141;49.234;9.326;2022-08-11T01:47:25;100109.59;;;18.88;49.53
6216;BME280;3141;49.234;9.326;2022-08-11T01:48:41;100113.06;;;18.82;49.44
6216;BME280;3141;49.234;9.326;2022-08-11T01:49:30;100119.25;;;18.82;49.33
6216;BME280;3141;49.234;9.326;2022-08-11T01:51:59;100109.41;;;18.89;49.18
6216;BME280;3141;49.234;9.326;2022-08-11T01:53:03;100112.09;;;18.96;48.93
6216;BME280;3141;49.234;9.326;2022-08-11T01:54:02;100117.22;;;18.84;49.78
6216;BME280;3141;49.234;9.326;2022-08-11T01:57:03;100109.53;;;18.81;49.97
6216;BME280;3141;49.234;9.326;2022-08-11T01:58:15;100115.53;;;18.83;49.60
6216;BME280;3141;49.234;9.326;2022-08-11T01:59:17;100104.16;;;18.75;50.29
6216;BME280;3141;49.234;9.326;2022-08-11T02:00:20;100109.59;;;18.88;49.84
6216;BME280;3141;49.234;9.326;2022-08-11T02:01:24;100110.63;;;18.93;49.63
6216;BME280;3141;49.234;9.326;2022-08-11T02:02:36;100113.94;;;18.95;49.27
6216;BME280;3141;49.234;9.326;2022-08-11T02:04:40;100111.44;;;18.87;49.73
6216;BME280;3141;49.234;9.326;2022-08-11T02:06:53;100105.34;;;18.66;50.59
6216;BME280;3141;49.234;9.326;2022-08-11T02:07:54;100106.81;;;18.68;50.29
6216;BME280;3141;49.234;9.326;2022-08-11T02:08:45;100106.19;;;18.73;50.36
6216;BME280;3141;49.234;9.326;2022-08-11T02:11:00;100105.56;;;18.71;50.26
6216;BME280;3141;49.234;9.326;2022-08-11T02:12:14;100111.09;;;18.63;50.18
6216;BME280;3141;49.234;9.326;2022-08-11T02:13:11;100104.72;;;18.64;50.35
6216;BME280;3141;49.234;9.326;2022-08-11T02:14:28;100106.81;;;18.68;50.22
6216;BME280;3141;49.234;9.326;2022-08-11T02:15:19;100114.59;;;18.63;50.54
6216;BME280;3141;49.234;9.326;2022-08-11T02:16:21;100107.56;;;18.62;50.67
6216;BME280;3141;49.234;9.326;2022-08-11T02:17:12;100107.75;;;18.54;51.29
6216;BME280;3141;49.234;9.326;2022-08-11T02:18:10;100110.03;;;18.57;51.48
6216;BME280;3141;49.234;9.326;2022-08-11T02:19:06;100112.25;;;18.54;51.37
6216;BME280;3141;49.234;9.326;2022-08-11T02:20:24;100111.50;;;18.38;51.68
6216;BME280;3141;49.234;9.326;2022-08-11T02:21:35;100110.69;;;18.38;51.42
6216;BME280;3141;49.234;9.326;2022-08-11T02:23:00;100106.84;;;18.40;51.32
6216;BME280;3141;49.234;9.326;2022-08-11T02:24:06;100110.06;;;18.36;50.97
6216;BME280;3141;49.234;9.326;2022-08-11T02:25:01;100106.56;;;18.35;50.15
6216;BME280;3141;49.234;9.326;2022-08-11T02:25:52;100098.72;;;18.34;50.40
6216;BME280;3141;49.234;9.326;2022-08-11T02:26:45;100106.16;;;18.38;49.42
6216;BME280;3141;49.234;9.326;2022-08-11T02:27:45;100105.28;;;18.31;49.52
6216;BME280;3141;49.234;9.326;2022-08-11T02:29:54;100101.00;;;18.37;49.39
6216;BME280;3141;49.234;9.326;2022-08-11T02:30:09;100100.44;;;18.41;48.54
6216;BME280;3141;49.234;9.326;2022-08-11T02:31:07;100096.75;;;18.42;48.39
6216;BME280;3141;49.234;9.326;2022-08-11T02:32:17;100099.97;;;18.38;48.55
6216;BME280;3141;49.234;9.326;2022-08-11T02:33:21;100101.72;;;18.24;48.88
6216;BME280;3141;49.234;9.326;2022-08-11T02:35:27;100097.22;;;18.25;48.97
6216;BME280;3141;49.234;9.326;2022-08-11T02:36:21;100098.41;;;18.22;49.03
6216;BME280;3141;49.234;9.326;2022-08-11T02:38:36;100100.47;;;18.20;49.16
6216;BME280;3141;49.234;9.326;2022-08-11T02:39:30;100096.28;;;18.11;49.38
6216;BME280;3141;49.234;9.326;2022-08-11T02:41:51;100091.00;;;17.97;50.08
6216;BME280;3141;49.234;9.326;2022-08-11T02:43:07;100097.19;;;17.97;50.37
6216;BME280;3141;49.234;9.326;2022-08-11T02:44:09;100092.34;;;18.07;50.15
6216;BME280;3141;49.234;9.326;2022-08-11T02:46:06;100081.25;;;18.10;49.89
6216;BME280;3141;49.234;9.326;2022-08-11T02:50:35;100092.56;;;18.12;50.41
6216;BME280;3141;49.234;9.326;2022-08-11T02:51:46;100086.44;;;18.12;50.36
6216;BME280;3141;49.234;9.326;2022-08-11T02:52:55;100092.78;;;18.11;50.11
6216;BME280;3141;49.234;9.326;2022-08-11T02:54:26;100089.94;;;17.91;51.13
6216;BME280;3141;49.234;9.326;2022-08-11T02:55:34;100088.09;;;17.92;51.19
6216;BME280;3141;49.234;9.326;2022-08-11T02:57:42;100095.81;;;18.01;50.67
6216;BME280;3141;49.234;9.326;2022-08-11T03:00:12;100095.25;;;18.12;50.10
6216;BME280;3141;49.234;9.326;2022-08-11T03:01:55;100089.91;;;18.12;50.81
6216;BME280;3141;49.234;9.326;2022-08-11T03:03:52;100095.56;;;17.96;51.35
6216;BME280;3141;49.234;9.326;2022-08-11T03:06:34;100096.81;;;18.00;51.49
6216;BME280;3141;49.234;9.326;2022-08-11T03:07:27;100100.63;;;17.91;51.64
6216;BME280;3141;49.234;9.326;2022-08-11T03:09:13;100090.56;;;17.93;51.69
6216;BME280;3141;49.234;9.326;2022-08-11T03:11:18;100099.69;;;17.99;51.78
6216;BME280;3141;49.234;9.326;2022-08-11T03:15:00;100098.28;;;17.82;52.45
6216;BME280;3141;49.234;9.326;2022-08-11T03:17:31;100105.47;;;17.81;52.51
6216;BME280;3141;49.234;9.326;2022-08-11T03:18:21;100106.97;;;17.84;52.04
6216;BME280;3141;49.234;9.326;2022-08-11T03:21:31;100101.72;;;17.76;52.67
6216;BME280;3141;49.234;9.326;2022-08-11T03:22:33;100100.78;;;17.83;52.27
6216;BME280;3141;49.234;9.326;2022-08-11T03:23:27;100100.91;;;17.75;53.06
6216;BME280;3141;49.234;9.326;2022-08-11T03:24:22;100106.06;;;17.77;52.56
6216;BME280;3141;49.234;9.326;2022-08-11T03:25:28;100104.84;;;17.79;52.25
6216;BME280;3141;49.234;9.326;2022-08-11T03:26:25;100099.88;;;17.76;52.46
6216;BME280;3141;49.234;9.326;2022-08-11T03:27:31;100109.31;;;17.72;52.79
6216;BME280;3141;49.234;9.326;2022-08-11T03:28:27;100099.03;;;17.76;52.64
6216;BME280;3141;49.234;9.326;2022-08-11T03:29:35;100103.25;;;17.85;52.31
6216;BME280;3141;49.234;9.326;2022-08-11T03:30:26;100111.03;;;17.80;52.44
6216;BME280;3141;49.234;9.326;2022-08-11T03:32:28;100102.16;;;17.79;52.47
6216;BME280;3141;49.234;9.326;2022-08-11T03:34:30;100110.72;;;17.68;52.85
6216;BME280;3141;49.234;9.326;2022-08-11T03:35:15;100108.44;;;17.65;53.08
6216;BME280;3141;49.234;9.326;2022-08-11T03:37:18;100109.19;;;17.59;53.51
6216;BME280;3141;49.234;9.326;2022-08-11T03:38:25;100102.81;;;17.60;53.29
6216;BME280;3141;49.234;9.326;2022-08-11T03:39:23;100110.56;;;17.55;53.62
6216;BME280;3141;49.234;9.326;2022-08-11T03:42:32;100108.03;;;17.68;53.04
6216;BME280;3141;49.234;9.326;2022-08-11T03:43:32;100109.03;;;17.67;53.01
6216;BME280;3141;49.234;9.326;2022-08-11T03:45:22;100122.06;;;17.70;53.02
6216;BME280;3141;49.234;9.326;2022-08-11T03:46:07;100127.16;;;17.65;53.42
6216;BME280;3141;49.234;9.326;2022-08-11T03:47:10;100122.84;;;17.71;53.29
6216;BME280;3141;49.234;9.326;2022-08-11T03:48:19;100121.50;;;17.60;53.61
6216;BME280;3141;49.234;9.326;2022-08-11T03:49:24;100115.56;;;17.58;53.79
6216;BME280;3141;49.234;9.326;2022-08-11T03:50:21;100121.16;;;17.63;53.48
6216;BME280;3141;49.234;9.326;2022-08-11T03:52:12;100118.22;;;17.79;53.00
6216;BME280;3141;49.234;9.326;2022-08-11T03:54:36;100121.81;;;17.65;53.43
6216;BME280;3141;49.234;9.326;2022-08-11T03:55:39;100117.31;;;17.51;54.12
6216;BME280;3141;49.234;9.326;2022-08-11T04:00:14;100119.63;;;17.40;54.96
6216;BME280;3141;49.234;9.326;2022-08-11T04:02:10;100120.66;;;17.53;54.72
6216;BME280;3141;49.234;9.326;2022-08-11T04:04:14;100122.69;;;17.51;53.71
6216;BME280;3141;49.234;9.326;2022-08-11T04:05:19;100126.81;;;17.54;53.24
6216;BME280;3141;49.234;9.326;2022-08-11T04:07:17;100122.28;;;17.54;52.96
6216;BME280;3141;49.234;9.326;2022-08-11T04:10:06;100125.34;;;17.51;52.60
6216;BME280;3141;49.234;9.326;2022-08-11T04:12:25;100123.69;;;17.50;52.58
6216;BME280;3141;49.234;9.326;2022-08-11T04:16:23;100133.72;;;17.48;52.85
6216;BME280;3141;49.234;9.326;2022-08-11T04:20:48;100124.81;;;17.26;54.15
6216;BME280;3141;49.234;9.326;2022-08-11T04:22:55;100125.41;;;17.43;53.82
6216;BME280;3141;49.234;9.326;2022-08-11T04:25:13;100120.72;;;17.45;53.10
6216;BME280;3141;49.234;9.326;2022-08-11T04:26:21;100123.69;;;17.50;53.48
6216;BME280;3141;49.234;9.326;2022-08-11T04:29:44;100130.31;;;17.54;53.00
6216;BME280;3141;49.234;9.326;2022-08-11T04:30:56;100128.03;;;17.51;53.60
6216;BME280;3141;49.234;9.326;2022-08-11T04:36:40;100124.31;;;17.52;53.99
6216;BME280;3141;49.234;9.326;2022-08-11T04:42:46;100136.81;;;17.66;54.39
6216;BME280;3141;49.234;9.326;2022-08-11T04:45:45;100135.88;;;17.74;54.65
6216;BME280;3141;49.234;9.326;2022-08-11T04:47:56;100137.72;;;17.94;54.17
6216;BME280;3141;49.234;9.326;2022-08-11T04:50:43;100144.31;;;18.19;53.35
6216;BME280;3141;49.234;9.326;2022-08-11T04:52:41;100138.06;;;18.12;53.50
6216;BME280;3141;49.234;9.326;2022-08-11T04:54:25;100141.44;;;18.21;53.17
6216;BME280;3141;49.234;9.326;2022-08-11T04:55:57;100134.09;;;18.29;52.98
6216;BME280;3141;49.234;9.326;2022-08-11T04:57:08;100134.50;;;18.26;53.12
6216;BME280;3141;49.234;9.326;2022-08-11T04:59:57;100133.84;;;18.46;52.54
6216;BME280;3141;49.234;9.326;2022-08-11T05:01:19;100131.41;;;18.51;52.18
6216;BME280;3141;49.234;9.326;2022-08-11T05:03:02;100134.75;;;18.59;51.93
6216;BME280;3141;49.234;9.326;2022-08-11T05:06:38;100143.84;;;18.99;50.81
6216;BME280;3141;49.234;9.326;2022-08-11T05:10:11;100143.94;;;19.12;50.93
6216;BME280;3141;49.234;9.326;2022-08-11T05:12:52;100152.50;;;19.35;50.65
6216;BME280;3141;49.234;9.326;2022-08-11T05:14:06;100146.81;;;19.58;49.49
6216;BME280;3141;49.234;9.326;2022-08-11T05:15:25;100147.63;;;19.58;50.00
6216;BME280;3141;49.234;9.326;2022-08-11T05:16:40;100152.81;;;19.66;49.01
6216;BME280;3141;49.234;9.326;2022-08-11T05:18:06;100145.41;;;19.75;49.28
6216;BME280;3141;49.234;9.326;2022-08-11T05:19:15;100153.50;;;20.07;48.34
6216;BME280;3141;49.234;9.326;2022-08-11T05:20:16;100150.63;;;20.15;48.19
6216;BME280;3141;49.234;9.326;2022-08-11T05:21:20;100152.72;;;20.20;48.28
6216;BME280;3141;49.234;9.326;2022-08-11T05:22:28;100151.00;;;20.12;48.55
6216;BME280;3141;49.234;9.326;2022-08-11T05:23:31;100150.44;;;20.23;48.42
6216;BME280;3141;49.234;9.326;2022-08-11T05:24:42;100150.63;;;20.15;48.44
6216;BME280;3141;49.234;9.326;2022-08-11T05:25:45;100151.03;;;20.45;48.21
6216;BME280;3141;49.234;9.326;2022-08-11T05:26:48;100147.75;;;20.30;48.72
6216;BME280;3141;49.234;9.326;2022-08-11T05:27:58;100150.63;;;20.54;47.76
6216;BME280;3141;49.234;9.326;2022-08-11T05:29:27;100153.91;;;20.69;47.56
6216;BME280;3141;49.234;9.326;2022-08-11T05:30:38;100150.81;;;20.79;46.94
6216;BME280;3141;49.234;9.326;2022-08-11T05:31:55;100159.25;;;20.96;46.85
6216;BME280;3141;49.234;9.326;2022-08-11T05:33:09;100154.47;;;20.98;46.78
6216;BME280;3141;49.234;9.326;2022-08-11T05:34:18;100157.16;;;21.11;46.37
6216;BME280;3141;49.234;9.326;2022-08-11T05:35:30;100157.53;;;21.27;46.26
6216;BME280;3141;49.234;9.326;2022-08-11T05:36:24;100161.00;;;21.28;46.41
6216;BME280;3141;49.234;9.326;2022-08-11T05:37:16;100160.88;;;21.10;46.83
6216;BME280;3141;49.234;9.326;2022-08-11T05:38:01;100160.81;;;21.23;46.33
6216;BME280;3141;49.234;9.326;2022-08-11T05:39:10;100158.25;;;21.47;45.82
6216;BME280;3141;49.234;9.326;2022-08-11T05:40:12;100159.78;;;21.30;46.07
6216;BME280;3141;49.234;9.326;2022-08-11T05:41:14;100169.00;;;21.47;45.66
6216;BME280;3141;49.234;9.326;2022-08-11T05:42:21;100164.00;;;21.57;45.75
6216;BME280;3141;49.234;9.326;2022-08-11T05:43:22;100171.19;;;21.70;45.69
6216;BME280;3141;49.234;9.326;2022-08-11T05:44:26;100168.03;;;21.73;45.32
6216;BME280;3141;49.234;9.326;2022-08-11T05:45:28;100166.69;;;21.95;44.82
6216;BME280;3141;49.234;9.326;2022-08-11T05:46:38;100171.50;;;21.93;44.91
6216;BME280;3141;49.234;9.326;2022-08-11T05:47:40;100171.63;;;22.05;44.66
6216;BME280;3141;49.234;9.326;2022-08-11T05:48:42;100170.94;;;22.09;44.64
6216;BME280;3141;49.234;9.326;2022-08-11T05:49:48;100169.25;;;22.15;44.66
6216;BME280;3141;49.234;9.326;2022-08-11T05:50:56;100171.91;;;22.21;44.37
6216;BME280;3141;49.234;9.326;2022-08-11T05:51:57;100161.28;;;22.26;44.58
6216;BME280;3141;49.234;9.326;2022-08-11T05:52:59;100158.97;;;22.30;43.90
6216;BME280;3141;49.234;9.326;2022-08-11T05:54:02;100161.69;;;22.30;44.03
6216;BME280;3141;49.234;9.326;2022-08-11T05:55:05;100163.00;;;22.45;43.72
6216;BME280;3141;49.234;9.326;2022-08-11T05:56:07;100165.84;;;22.50;43.42
6216;BME280;3141;49.234;9.326;2022-08-11T05:57:02;100164.56;;;22.59;43.54
6216;BME280;3141;49.234;9.326;2022-08-11T05:57:45;100159.88;;;22.48;43.50
6216;BME280;3141;49.234;9.326;2022-08-11T05:58:35;100170.22;;;22.51;43.86
6216;BME280;3141;49.234;9.326;2022-08-11T05:59:18;100161.72;;;22.54;43.75
6216;BME280;3141;49.234;9.326;2022-08-11T06:00:06;100159.41;;;22.58;43.77
6216;BME280;3141;49.234;9.326;2022-08-11T06:00:53;100166.31;;;22.72;44.41
6216;BME280;3141;49.234;9.326;2022-08-11T06:01:36;100159.97;;;22.84;43.87
6216;BME280;3141;49.234;9.326;2022-08-11T06:02:18;100172.47;;;22.97;43.61
6216;BME280;3141;49.234;9.326;2022-08-11T06:03:01;100166.88;;;22.99;43.05
6216;BME280;3141;49.234;9.326;2022-08-11T06:03:51;100164.00;;;22.93;43.30
6216;BME280;3141;49.234;9.326;2022-08-11T06:04:56;100155.50;;;22.97;43.06
6216;BME280;3141;49.234;9.326;2022-08-11T06:05:42;100164.91;;;23.06;43.11
6216;BME280;3141;49.234;9.326;2022-08-11T06:06:26;100163.56;;;23.15;42.77
6216;BME280;3141;49.234;9.326;2022-08-11T06:07:11;100165.16;;;23.22;42.65
6216;BME280;3141;49.234;9.326;2022-08-11T06:07:54;100166.72;;;23.30;42.69
6216;BME280;3141;49.234;9.326;2022-08-11T06:08:37;100168.53;;;23.36;42.84
6216;BME280;3141;49.234;9.326;2022-08-11T06:10:31;100161.09;;;23.49;42.53
6216;BME280;3141;49.234;9.326;2022-08-11T06:11:15;100158.13;;;23.39;42.64
6216;BME280;3141;49.234;9.326;2022-08-11T06:12:02;100158.94;;;23.40;42.60
6216;BME280;3141;49.234;9.326;2022-08-11T06:12:51;100154.72;;;23.62;42.25
6216;BME280;3141;49.234;9.326;2022-08-11T06:13:34;100156.25;;;23.69;42.21
6216;BME280;3141;49.234;9.326;2022-08-11T06:14:18;100161.31;;;23.66;42.25
6216;BME280;3141;49.234;9.326;2022-08-11T06:15:06;100161.97;;;23.91;41.84
6216;BME280;3141;49.234;9.326;2022-08-11T06:15:50;100157.94;;;24.00;41.84
6216;BME280;3141;49.234;9.326;2022-08-11T06:16:34;100152.06;;;24.03;41.61
6216;BME280;3141;49.234;9.326;2022-08-11T06:17:27;100156.09;;;23.94;41.39
6216;BME280;3141;49.234;9.326;2022-08-11T06:18:13;100162.44;;;24.29;40.74
6216;BME280;3141;49.234;9.326;2022-08-11T06:18:56;100161.19;;;24.43;40.87
6216;BME280;3141;49.234;9.326;2022-08-11T06:19:41;100167.28;;;24.50;40.52
6216;BME280;3141;49.234;9.326;2022-08-11T06:20:28;100160.34;;;24.54;40.67
6216;BME280;3141;49.234;9.326;2022-08-11T06:21:19;100158.22;;;24.56;40.56
6216;BME280;3141;49.234;9.326;2022-08-11T06:22:04;100154.59;;;24.62;40.07
6216;BME280;3141;49.234;9.326;2022-08-11T06:22:58;100163.81;;;24.73;40.08
6216;BME280;3141;49.234;9.326;2022-08-11T06:23:43;100165.91;;;24.82;40.03
6216;BME280;3141;49.234;9.326;2022-08-11T06:24:26;100158.75;;;24.76;40.53
6216;BME280;3141;49.234;9.326;2022-08-11T06:25:10;100165.31;;;24.92;40.49
6216;BME280;3141;49.234;9.326;2022-08-11T06:25:53;100161.22;;;24.78;40.65
6216;BME280;3141;49.234;9.326;2022-08-11T06:26:36;100162.03;;;24.78;40.78
6216;BME280;3141;49.234;9.326;2022-08-11T06:27:20;100166.59;;;25.01;40.04
6216;BME280;3141;49.234;9.326;2022-08-11T06:28:05;100162.34;;;25.05;39.92
6216;BME280;3141;49.234;9.326;2022-08-11T06:28:48;100169.19;;;24.96;39.40
6216;BME280;3141;49.234;9.326;2022-08-11T06:29:33;100164.59;;;24.96;39.17
6216;BME280;3141;49.234;9.326;2022-08-11T06:30:17;100165.03;;;25.17;38.85
6216;BME280;3141;49.234;9.326;2022-08-11T06:31:19;100164.22;;;25.16;38.39
6216;BME280;3141;49.234;9.326;2022-08-11T06:32:05;100167.75;;;25.17;38.05
6216;BME280;3141;49.234;9.326;2022-08-11T06:32:50;100167.84;;;25.22;38.27
6216;BME280;3141;49.234;9.326;2022-08-11T06:35:09;100170.19;;;25.30;38.29
6216;BME280;3141;49.234;9.326;2022-08-11T06:36:05;100165.81;;;25.52;37.81
6216;BME280;3141;49.234;9.326;2022-08-11T06:37:02;100163.09;;;25.52;37.78
6216;BME280;3141;49.234;9.326;2022-08-11T06:40:57;100175.25;;;25.94;36.93
6216;BME280;3141;49.234;9.326;2022-08-11T06:42:08;100176.88;;;26.06;37.28
6216;BME280;3141;49.234;9.326;2022-08-11T06:43:01;100166.88;;;26.07;36.50
6216;BME280;3141;49.234;9.326;2022-08-11T06:43:58;100170.25;;;26.31;36.47
6216;BME280;3141;49.234;9.326;2022-08-11T06:45:00;100171.09;;;26.31;36.16
6216;BME280;3141;49.234;9.326;2022-08-11T06:45:54;100168.88;;;26.45;36.37
6216;BME280;3141;49.234;9.326;2022-08-11T06:46:42;100166.72;;;26.30;36.45
6216;BME280;3141;49.234;9.326;2022-08-11T06:47:25;100159.25;;;25.92;36.42
6216;BME280;3141;49.234;9.326;2022-08-11T06:48:15;100164.00;;;25.85;36.51
6216;BME280;3141;49.234;9.326;2022-08-11T06:49:02;100154.16;;;25.96;36.44
6216;BME280;3141;49.234;9.326;2022-08-11T06:49:48;100169.28;;;25.92;36.81
6216;BME280;3141;49.234;9.326;2022-08-11T06:50:56;100167.38;;;26.04;36.18
6216;BME280;3141;49.234;9.326;2022-08-11T06:52:07;100166.53;;;26.03;35.90
6216;BME280;3141;49.234;9.326;2022-08-11T06:52:58;100169.00;;;26.05;36.27
6216;BME280;3141;49.234;9.326;2022-08-11T06:53:46;100166.38;;;26.10;36.44
6216;BME280;3141;49.234;9.326;2022-08-11T06:54:34;100167.28;;;26.32;36.28
6216;BME280;3141;49.234;9.326;2022-08-11T06:55:23;100172.50;;;26.50;35.63
6216;BME280;3141;49.234;9.326;2022-08-11T06:56:29;100172.66;;;26.44;35.66
6216;BME280;3141;49.234;9.326;2022-08-11T06:57:33;100167.22;;;26.60;35.56
6216;BME280;3141;49.234;9.326;2022-08-11T06:58:37;100167.28;;;26.65;35.30
6216;BME280;3141;49.234;9.326;2022-08-11T06:59:40;100174.78;;;26.42;35.33
6216;BME280;3141;49.234;9.326;2022-08-11T07:00:42;100167.38;;;26.37;35.53
6216;BME280;3141;49.234;9.326;2022-08-11T07:02:30;100165.59;;;26.76;35.24
6216;BME280;3141;49.234;9.326;2022-08-11T07:03:16;100175.44;;;26.49;35.70
6216;BME280;3141;49.234;9.326;2022-08-11T07:04:05;100164.34;;;26.34;35.54
6216;BME280;3141;49.234;9.326;2022-08-11T07:05:57;100159.59;;;26.57;35.41
6216;BME280;3141;49.234;9.326;2022-08-11T07:10:02;100167.72;;;26.41;35.39
6216;BME280;3141;49.234;9.326;2022-08-11T07:11:26;100169.69;;;26.45;35.68
6216;BME280;3141;49.234;9.326;2022-08-11T07:12:38;100173.22;;;26.62;35.10
6216;BME280;3141;49.234;9.326;2022-08-11T07:13:40;100170.19;;;26.59;35.19
6216;BME280;3141;49.234;9.326;2022-08-11T07:14:49;100164.34;;;26.67;34.85
6216;BME280;3141;49.234;9.326;2022-08-11T07:15:51;100161.97;;;26.70;35.48
6216;BME280;3141;49.234;9.326;2022-08-11T07:16:38;100167.41;;;26.70;35.51
6216;BME280;3141;49.234;9.326;2022-08-11T07:17:23;100156.88;;;26.74;34.96
6216;BME280;3141;49.234;9.326;2022-08-11T07:18:06;100164.50;;;26.77;35.13
6216;BME280;3141;49.234;9.326;2022-08-11T07:19:08;100162.38;;;26.62;35.37
6216;BME280;3141;49.234;9.326;2022-08-11T07:20:11;100166.56;;;26.86;34.82
6216;BME280;3141;49.234;9.326;2022-08-11T07:21:18;100159.31;;;26.92;34.92
6216;BME280;3141;49.234;9.326;2022-08-11T07:22:23;100158.84;;;26.78;35.13
6216;BME280;3141;49.234;9.326;2022-08-11T07:23:28;100148.47;;;26.75;35.07
6216;BME280;3141;49.234;9.326;2022-08-11T07:24:37;100149.06;;;26.61;34.92
6216;BME280;3141;49.234;9.326;2022-08-11T07:25:40;100148.16;;;26.72;34.82